KHVR/HVR METAR and TAF weather

Enter ICAO airport designator
Station Type Date Time Source
KHVR METAR 2019/02/18 03:53 UTC NOAA

KHVR 180353Z AUTO 24005KT 10SM CLR M24/M26 A3041 RMK AO2 SLP378 T12391261


Station Type Date Time Source
KHVR Decoded METAR 2019/02/18 03:53 UTC NOAA

HAVRE CITY-COUNTY AIRPORT, MT, United States (KHVR) 48-33N 109-46W 787M
Feb 17, 2019 - 10:53 PM EST / 2019.02.18 0353 UTC
Wind: from the WSW (240 degrees) at 6 MPH (5 KT):0
Visibility: 10 mile(s):0
Sky conditions: clear
Temperature: -11.0 F (-23.9 C)
Windchill: -25 F (-32 C):2
Dew Point: -15.0 F (-26.1 C)
Relative Humidity: 82%
Pressure (altimeter): 30.41 in. Hg (1029 hPa)
ob: KHVR 180353Z AUTO 24005KT 10SM CLR M24/M26 A3041 RMK AO2 SLP378 T12391261
cycle: 4

Station Type Date Time Source
KHVR TAF 2019/02/17 18:42 UTC NOAA

TAF KHVR 171739Z 1718/1818 27011KT P6SM SCT015 BKN060
TEMPO 1718/1722 6SM BR BKN015
FM172200 30009KT P6SM SCT015 BKN110
FM180600 VRB06KT P6SM SCT020 BKN050


Example: see airport list